Flight Track Log - Related Links

Times and Time Zones

All times are in EDT time to prevent confusion due to time zone crossing. See the DAL2285 flight status page for this flight to view local times or setup timezone preferences in your user account.

Time Position Orientation Groundspeed Altitude Reporting Facility
EDT Latitude Longitude Course Direction KTS MPH feet Rate Location/Type
Tue 07:37:25 AM 40.7400 -73.8400 201° Southwest 186 214 1,900  Level Washington Center
Tue 07:38:15 AM 40.7333 -73.7833 99° East 240 276 4,100 2,727 Climbing New York TRACON
Tue 07:39:15 AM 40.7833 -73.8167 333° Northwest 226 260 6,900 2,550 Climbing New York TRACON
Tue 07:40:00 AM 40.3221 -74.0807 201° Southwest  Level FlightAware Approximate
Tue 07:40:15 AM 40.8167 -73.9000 298° West 287 330 9,200  Level New York TRACON
Tue 07:41:00 AM 40.2112 -74.1388 217° Southwest  Level FlightAware Approximate
Tue 07:41:15 AM 40.7667 -73.9833 232° Southwest 318 366 11,000  Level New York TRACON
Tue 07:42:00 AM 40.1038 -74.1898 201° Southwest  Level FlightAware Approximate
Tue 07:42:15 AM 40.7000 -74.0833 229° Southwest 367 422 12,000  Level New York TRACON
Tue 07:44:07 AM 40.5433 -74.1956 209° Southwest 368 423 14,400 1,500 Climbing New York Center
Tue 07:45:07 AM 40.4450 -74.2072 185° South 383 441 16,300 1,322 Climbing New York Center
Tue 07:46:05 AM 40.3236 -74.2203 185° South 403 464 17,000 706 Climbing New York Center
Tue 07:47:06 AM 40.2253 -74.2317 185° South 408 470 17,700 1,436 Climbing New York Center
Tue 07:48:48 AM 40.0367 -74.2475 184° South 404 465 20,900 1,627 Climbing Washington Center
Tue 07:49:52 AM 39.9344 -74.3203 209° Southwest 428 493 22,200 1,632 Climbing Washington Center
Tue 07:50:53 AM 39.8181 -74.4319 216° Southwest 431 496 24,300 1,721 Climbing Washington Center
Tue 07:51:54 AM 39.7328 -74.5442 225° Southwest 433 498 25,700 1,248 Climbing Washington Center
Tue 07:52:58 AM 39.6447 -74.6581 225° Southwest 440 506 26,900 1,065 Climbing Washington Center
Tue 07:53:58 AM 39.5544 -74.7792 226° Southwest 457 526 27,900 1,161 Climbing Washington Center
Tue 07:55:02 AM 39.4647 -74.8983 226° Southwest 458 527 29,300 1,143 Climbing Washington Center
Tue 07:56:04 AM 39.3747 -75.0147 225° Southwest 457 526 30,300 912 Climbing Washington Center
Tue 07:57:07 AM 39.2703 -75.1119 216° Southwest 465 535 31,200 1,171 Climbing Washington Center
Tue 07:58:07 AM 39.1256 -75.1847 201° Southwest 468 539 32,700 1,161 Climbing Washington Center
Tue 07:59:11 AM 39.0011 -75.2356 198° South 468 539 33,600 624 Climbing Washington Center
Tue 08:00:12 AM 38.8772 -75.2864 198° South 468 539 34,000 195 Climbing Washington Center
Tue 08:01:14 AM 38.7525 -75.3369 198° South 468 539 34,000 -48 Level Washington Center
Tue 08:02:18 AM 38.6278 -75.3894 198° South 468 539 33,900 -48 Descending Washington Center
Tue 08:03:18 AM 38.5011 -75.4433 198° South 477 549 33,900 435 Level Washington Center
Tue 08:04:22 AM 38.3503 -75.5139 200° South 479 551 34,800 864 Climbing Washington Center
Tue 08:05:23 AM 38.2408 -75.5928 210° Southwest 474 545 35,700 581 Climbing Washington Center
Tue 08:06:26 AM 38.1269 -75.6750 210° Southwest 474 545 36,000 97 Climbing Washington Center
Tue 08:07:27 AM 38.0056 -75.7644 210° Southwest 470 541 35,900  Descending Washington Center
Tue 08:08:30 AM 37.8786 -75.8531 209° Southwest 469 540 36,000 48 Climbing Washington Center
Tue 08:09:31 AM 37.7775 -75.9256 210° Southwest 469 540 36,000 -48 Level Washington Center
Tue 08:10:35 AM 37.6406 -76.0197 209° Southwest 469 540 35,900  Descending Washington Center
Tue 08:11:36 AM 37.5286 -76.0981 209° Southwest 462 532 36,000 49 Climbing Washington Center
Tue 08:12:37 AM 37.4258 -76.1711 209° Southwest 464 534 36,000  Level Washington Center
Tue 08:13:41 AM 37.2878 -76.2667 209° Southwest 467 537 36,000  Level Washington Center
Tue 08:14:41 AM 37.1750 -76.3447 209° Southwest 465 535 36,000  Level Washington Center
Tue 08:15:45 AM 37.0642 -76.4203 209° Southwest 459 528 36,000  Level Washington Center
Tue 08:16:46 AM 36.9550 -76.4964 209° Southwest 454 522 36,000  Level Washington Center
Tue 08:17:49 AM 36.8447 -76.5708 208° Southwest 448 516 36,000  Level Washington Center
Tue 08:18:53 AM 36.7350 -76.6478 209° Southwest 451 519 36,000  Level Washington Center
Tue 08:19:54 AM 36.6000 -76.7392 209° Southwest 452 520 36,000  Level Washington Center
Tue 08:20:55 AM 36.4917 -76.8117 208° Southwest 452 520 36,000  Level Washington Center
Tue 08:21:59 AM 36.3806 -76.8883 209° Southwest 451 519 36,000  Level Washington Center
Tue 08:23:00 AM 36.2708 -76.9611 208° Southwest 449 517 36,000 -48 Level Washington Center
Tue 08:24:04 AM 36.1617 -77.0339 208° Southwest 448 516 35,900 -48 Descending Washington Center
Tue 08:25:04 AM 36.0533 -77.1069 209° Southwest 446 513 35,900 48 Level Washington Center
Tue 08:26:08 AM 35.9378 -77.1958 212° Southwest 445 512 36,000 48 Climbing Washington Center
Tue 08:27:09 AM 35.8428 -77.2914 219° Southwest 443 510 36,000  Level Washington Center
Tue 08:28:10 AM 35.7275 -77.4044 219° Southwest 440 506 36,000  Level Washington Center
Tue 08:29:14 AM 35.6314 -77.4967 218° Southwest 438 504 36,000  Level Washington Center
Tue 08:30:14 AM 35.5347 -77.5900 218° Southwest 439 505 36,000  Level Washington Center
Tue 08:31:17 AM 35.4386 -77.6833 218° Southwest 439 505 36,000  Level Washington Center
Tue 08:32:20 AM 35.3417 -77.7761 218° Southwest 438 504 36,000  Level Washington Center
Tue 08:33:21 AM 35.2436 -77.8706 218° Southwest 441 507 36,000  Level Washington Center
Tue 08:34:25 AM 35.1244 -77.9825 218° Southwest 443 510 36,000  Level Washington Center
Tue 08:35:25 AM 35.0258 -78.0772 218° Southwest 445 512 36,000  Level Washington Center
Tue 08:36:27 AM 34.9278 -78.1714 218° Southwest 445 512 36,000  Level Washington Center
Tue 08:37:29 AM 34.8300 -78.2642 218° Southwest 445 512 36,000  Level Washington Center
Tue 08:38:33 AM 34.7328 -78.3561 218° Southwest 444 511 36,000  Level Washington Center
Tue 08:39:34 AM 34.6350 -78.4478 218° Southwest 443 510 36,000  Level Washington Center
Tue 08:40:37 AM 34.5369 -78.5400 218° Southwest 444 511 36,000  Level Washington Center
Tue 08:41:38 AM 34.4189 -78.6511 218° Southwest 445 512 36,000  Level Washington Center
Tue 08:42:41 AM 34.3203 -78.7408 217° Southwest 444 511 36,000  Level Washington Center
Tue 08:43:45 AM 34.2231 -78.8308 217° Southwest 440 506 36,000  Level Washington Center
Tue 08:44:45 AM 34.1242 -78.9206 217° Southwest 440 506 36,000  Level Washington Center
Tue 08:45:49 AM 34.0253 -79.0139 218° Southwest 443 510 36,000  Level Washington Center
Tue 08:46:50 AM 33.9256 -79.1053 217° Southwest 445 512 36,000  Level Washington Center
Tue 08:47:52 AM 33.8058 -79.2139 217° Southwest 446 513 36,000  Level Washington Center
Tue 08:48:55 AM 33.7061 -79.3053 217° Southwest 446 513 36,000  Level Washington Center
Tue 08:49:56 AM 33.6064 -79.3953 217° Southwest 446 513 36,000  Level Washington Center
Tue 08:51:03 AM 33.4864 -79.5058 218° Southwest 450 518 36,000 -47 Level Jacksonville Center
Tue 08:52:03 AM 33.3883 -79.5939 217° Southwest 450 518 35,900  Descending Jacksonville Center
Tue 08:53:03 AM 33.2906 -79.6822 217° Southwest 450 518 36,000 50 Climbing Jacksonville Center
Tue 08:54:03 AM 33.1906 -79.7700 216° Southwest 450 518 36,000  Level Jacksonville Center
Tue 08:55:03 AM 33.0883 -79.8606 217° Southwest 450 518 36,000  Level Jacksonville Center
Tue 08:56:03 AM 32.9903 -79.9481 217° Southwest 450 518 36,000 -50 Level Jacksonville Center
Tue 08:57:03 AM 32.8881 -80.0378 216° Southwest 450 518 35,900 -50 Descending Jacksonville Center
Tue 08:58:03 AM 32.8089 -80.1492 230° Southwest 450 518 35,900  Level Jacksonville Center
Tue 08:59:03 AM 32.7403 -80.2500 231° Southwest 445 512 35,900 50 Level Jacksonville Center
Tue 09:00:03 AM 32.6397 -80.3344 215° Southwest 445 512 36,000 50 Climbing Jacksonville Center
Tue 09:01:03 AM 32.5303 -80.4014 207° Southwest 445 512 36,000 -50 Level Jacksonville Center
Tue 09:02:03 AM 32.4231 -80.4733 210° Southwest 445 512 35,900  Descending Jacksonville Center
Tue 09:03:03 AM 32.3139 -80.5425 208° Southwest 445 512 36,000 50 Climbing Jacksonville Center
Tue 09:04:03 AM 32.2044 -80.6117 208° Southwest 445 512 36,000  Level Jacksonville Center
Tue 09:05:03 AM 32.0889 -80.6881 209° Southwest 440 506 36,000  Level Jacksonville Center
Tue 09:06:03 AM 31.9814 -80.7569 209° Southwest 440 506 36,000  Level Jacksonville Center
Tue 09:07:03 AM 31.8825 -80.8228 209° Southwest 445 512 36,000  Level Jacksonville Center
Tue 09:08:03 AM 31.7644 -80.8961 208° Southwest 445 512 36,000  Level Jacksonville Center
Tue 09:09:03 AM 31.6569 -80.9644 208° Southwest 445 512 36,000  Level Jacksonville Center
Tue 09:10:03 AM 31.5642 -81.0272 210° Southwest 440 506 36,000  Level Jacksonville Center
Tue 09:11:03 AM 31.4503 -81.1003 209° Southwest 430 495 36,000  Level Jacksonville Center
Tue 09:12:03 AM 31.3425 -81.1558 204° Southwest 425 489 36,000  Level Jacksonville Center
Tue 09:13:03 AM 31.2383 -81.1747 189° South 420 483 36,000  Level Jacksonville Center
Tue 09:14:03 AM 31.1172 -81.1722 179° South 425 489 36,000 -50 Level Jacksonville Center
Tue 09:15:03 AM 30.9961 -81.1647 177° South 430 495 35,900 -50 Descending Jacksonville Center
Tue 09:16:03 AM 30.8750 -81.1619 179° South 435 501 35,900 -100 Level Jacksonville Center
Tue 09:17:03 AM 30.7558 -81.1569 178° South 435 501 35,700 -850 Descending Jacksonville Center
Tue 09:18:03 AM 30.6389 -81.1517 178° South 435 501 34,200 -850 Descending Jacksonville Center
Tue 09:19:03 AM 30.5178 -81.1492 179° South 435 501 34,000 -100 Descending Jacksonville Center
Tue 09:20:03 AM 30.3944 -81.1467 179° South 440 506 34,000 -50 Level Jacksonville Center
Tue 09:21:03 AM 30.2753 -81.1439 179° South 435 501 33,900  Descending Jacksonville Center
Tue 09:22:03 AM 30.1522 -81.1367 177° South 435 501 34,000 -300 Climbing Jacksonville Center
Tue 09:23:03 AM 30.0311 -81.1364 180° South 440 506 33,300 -1,050 Descending Jacksonville Center
Tue 09:24:03 AM 29.9119 -81.1314 178° South 440 506 31,900 -2,350 Descending Jacksonville Center
Tue 09:25:03 AM 29.7889 -81.1289 179° South 440 506 28,600 -3,350 Descending Jacksonville Center
Tue 09:26:03 AM 29.6656 -81.1286 180° South 440 506 25,200 -3,100 Descending Jacksonville Center
Tue 09:27:03 AM 29.5444 -81.1261 179° South 440 506 22,400 -2,700 Descending Jacksonville Center
Tue 09:28:03 AM 29.4275 -81.1233 179° South 433 498 19,800 -2,600 Descending Jacksonville Center
Tue 09:29:03 AM 29.3147 -81.1158 177° South 421 484 17,200 -2,200 Descending Jacksonville Center
Tue 09:30:03 AM 29.2081 -81.1083 176° South 407 468 15,400 -1,800 Descending Jacksonville Center
Tue 09:31:03 AM 29.1161 -81.1006 176° South 369 425 13,600 -1,650 Descending Jacksonville Center
Tue 09:32:03 AM 29.0306 -81.0925 175° South 335 386 12,100 -1,050 Descending Jacksonville Center
Tue 09:33:03 AM 28.9469 -81.0822 174° South 315 362 11,500 -1,200 Descending Jacksonville Center
Tue 09:34:03 AM 28.8631 -81.0647 170° South 309 356 9,700 -1,600 Descending Jacksonville Center
Tue 09:35:03 AM 28.7956 -81.0139 147° Southeast 291 335 8,300 -1,100 Descending Jacksonville Center
Tue 09:36:03 AM 28.7397 -81.0456 206° Southwest 260 299 7,500 -1,100 Descending Jacksonville Center
Tue 09:37:03 AM 28.7367 -81.1192 267° West 185 213 6,100 -1,450 Descending Jacksonville Center
Tue 09:38:03 AM 28.7125 -81.1883 248° West 204 235 4,600 -1,250 Descending Jacksonville Center
Tue 09:39:03 AM 28.6733 -81.2292 222° Southwest 211 243 3,600 -794 Descending Jacksonville Center
Tue 09:40:19 AM 28.6000 -81.2667 204° Southwest 200 230 2,800 -529 Descending Orlando TRACON
Tue 09:41:19 AM 28.5667 -81.3000 221° Southwest 171 197 2,400 -645 Descending Orlando TRACON
Tue 09:42:20 AM 28.5167 -81.3000 180° South 176 203 1,500 -843 Descending Orlando TRACON
Tue 09:43:20 AM 28.4667 -81.3000 180° South 136 157 700 -800 Descending Orlando TRACON

Login

Don't have an account? Register now (free) for customized features, flight alerts, and more!